Gibbstown, New Jersey
Current Conditions -  °F | °C
As of 3:54 PM on Monday 22 Dec 2014 (Local Time) from KPHL Reporting Station
Overcast Overcast  
Wind Chill: 39°   Ceiling: 8000
Heat Index: 44°   Visibility: 9mi
Dew Point: 35°   Wind: 9mph
Humidity: 71%   Direction: 50°NE
Pressure: 30.2"   Gusts: NA
Location:  39.83°N, 75.28°W
Report Text: KPHL 222054Z 05008KT 9SM SCT040 BKN080 OVC120 07/02 A3020 RMK AO2 SLP224 T00670017 56015
Loading
Personal Weather Stations






























Interactive Weather Map New forecast layout! Learn more

10-Day Weather Forecast

Advertisements
Track Severe Weather on mobile